Time;durP1;ratioP1;P1;durP2;ratioP2;P2;SDS_P1;SDS_P2;PMS_P1;PMS_P2;Temp;Humidity;BMP_temperature;BMP_pressure;BME280_temperature;BME280_humidity;BME280_pressure;Samples;Min_cycle;Max_cycle;Signal;HPM_P1;HPM_P2
2023/05/11 00:01:33;;;;;;;5.27;4.43;;;23.40;56.10;;;;;;4978191;28;20416;-78
2023/05/11 00:04:02;;;;;;;6.37;4.60;;;23.40;56.10;;;;;;4985428;28;20469;-77
2023/05/11 00:06:31;;;;;;;4.77;4.00;;;23.40;56.10;;;;;;4975702;28;20442;-77
2023/05/11 00:08:59;;;;;;;5.00;4.20;;;23.40;56.00;;;;;;4977275;28;20450;-77
2023/05/11 00:11:27;;;;;;;5.13;4.23;;;23.40;56.10;;;;;;4989145;28;20473;-79
2023/05/11 00:13:55;;;;;;;6.57;5.40;;;23.40;56.10;;;;;;4986204;28;20466;-77
2023/05/11 00:16:24;;;;;;;6.90;5.17;;;23.30;56.10;;;;;;4981427;28;20473;-77
2023/05/11 00:18:53;;;;;;;7.97;6.20;;;23.30;56.10;;;;;;4969698;28;20446;-78
2023/05/11 00:21:21;;;;;;;7.70;6.10;;;23.30;56.10;;;;;;4981122;28;20463;-78
2023/05/11 00:23:49;;;;;;;6.00;5.40;;;23.30;56.10;;;;;;4986593;28;20552;-78
2023/05/11 00:26:20;;;;;;;6.13;5.47;;;23.30;56.10;;;;;;4973744;28;20450;-78
2023/05/11 00:28:47;;;;;;;12.20;6.70;;;23.30;56.10;;;;;;4980366;28;20982;-78
2023/05/11 00:31:16;;;;;;;10.53;6.50;;;23.30;56.10;;;;;;4978831;28;20569;-77
2023/05/11 00:33:45;;;;;;;8.40;6.40;;;23.30;56.20;;;;;;4979804;28;20445;-77
2023/05/11 00:36:20;;;;;;;12.57;8.40;;;23.20;56.00;;;;;;4967125;28;20533;-77
2023/05/11 00:38:48;;;;;;;11.00;8.33;;;23.20;56.20;;;;;;4972373;28;20445;-77
2023/05/11 00:41:16;;;;;;;12.13;8.40;;;23.20;56.20;;;;;;4971900;28;20430;-78
2023/05/11 00:43:44;;;;;;;12.30;8.83;;;23.20;56.00;;;;;;4971944;28;20458;-77
2023/05/11 00:46:13;;;;;;;9.83;8.00;;;23.20;56.00;;;;;;4979861;28;20457;-78
2023/05/11 00:48:41;;;;;;;10.43;7.90;;;23.20;56.00;;;;;;4977568;28;21018;-78
2023/05/11 00:51:11;;;;;;;11.53;8.80;;;23.20;56.10;;;;;;4971936;28;20427;-78
2023/05/11 00:53:39;;;;;;;11.70;8.50;;;23.10;56.10;;;;;;4971808;28;20480;-77
2023/05/11 00:56:07;;;;;;;9.90;7.90;;;23.10;56.10;;;;;;4979962;28;20456;-78
2023/05/11 00:58:35;;;;;;;12.23;9.23;;;23.10;56.00;;;;;;4971409;28;20446;-78
2023/05/11 01:01:03;;;;;;;11.10;8.37;;;23.10;56.00;;;;;;4972675;28;20453;-78
2023/05/11 01:03:31;;;;;;;10.83;8.43;;;23.10;56.20;;;;;;4972536;28;20458;-78
2023/05/11 01:06:05;;;;;;;9.63;8.00;;;23.10;56.30;;;;;;4976569;28;20991;-78
2023/05/11 01:08:39;;;;;;;10.80;8.40;;;23.10;56.10;;;;;;4975537;28;20442;-79
2023/05/11 01:11:11;;;;;;;10.53;8.47;;;23.10;56.10;;;;;;4975825;28;20450;-78
2023/05/11 01:13:41;;;;;;;9.57;8.03;;;23.00;56.10;;;;;;4974471;28;20462;-78
2023/05/11 01:16:11;;;;;;;11.50;8.80;;;23.10;56.10;;;;;;4984833;28;20448;-78
2023/05/11 01:18:42;;;;;;;13.10;8.77;;;23.00;56.20;;;;;;4978315;28;20469;-76
2023/05/11 01:21:10;;;;;;;14.13;9.33;;;23.10;56.20;;;;;;4980733;28;20443;-78
2023/05/11 01:24:12;;;;;;;11.03;8.10;;;23.00;56.10;;;;;;4974607;28;20465;-79
2023/05/11 01:26:49;;;;;;;11.30;8.70;;;23.10;56.10;;;;;;4974900;28;20449;-78
2023/05/11 01:29:50;;;;;;;17.07;8.70;;;23.00;56.10;;;;;;4982101;28;20457;-78
2023/05/11 01:32:22;;;;;;;8.80;7.73;;;23.00;56.20;;;;;;4969255;28;20488;-78
2023/05/11 01:34:54;;;;;;;9.23;7.93;;;23.00;56.20;;;;;;4974969;28;20465;-78
2023/05/11 01:37:23;;;;;;;11.53;8.33;;;23.00;56.30;;;;;;4980775;28;20450;-78
2023/05/11 01:39:52;;;;;;;10.40;7.37;;;23.00;56.20;;;;;;4972274;28;20450;-78
2023/05/11 01:42:21;;;;;;;11.77;8.20;;;23.00;56.20;;;;;;4974461;28;20549;-79
2023/05/11 01:44:50;;;;;;;10.17;8.00;;;23.00;56.30;;;;;;4985854;28;20445;-78
2023/05/11 01:47:19;;;;;;;10.63;7.80;;;22.90;56.20;;;;;;4981074;28;20417;-78
2023/05/11 01:49:47;;;;;;;8.50;7.47;;;22.90;56.10;;;;;;4972596;28;20438;-78
2023/05/11 01:52:15;;;;;;;12.10;8.07;;;22.90;56.20;;;;;;4973092;28;20480;-78
2023/05/11 01:54:43;;;;;;;10.17;7.80;;;22.90;56.20;;;;;;4972872;28;20454;-79
2023/05/11 01:57:12;;;;;;;11.97;7.10;;;22.90;56.20;;;;;;4972958;28;20454;-78
2023/05/11 01:59:40;;;;;;;8.57;7.10;;;22.90;56.20;;;;;;4972793;28;20454;-78
2023/05/11 02:02:08;;;;;;;10.33;7.60;;;22.90;56.30;;;;;;4980107;28;20469;-78
2023/05/11 02:04:38;;;;;;;9.20;7.30;;;22.90;56.20;;;;;;4977376;28;20469;-78
2023/05/11 02:07:07;;;;;;;8.53;7.23;;;22.90;56.30;;;;;;4982875;28;20490;-79
2023/05/11 02:09:35;;;;;;;8.37;7.43;;;22.90;56.40;;;;;;4977237;28;20450;-77
2023/05/11 02:12:03;;;;;;;11.73;7.17;;;22.80;56.40;;;;;;4980195;28;20446;-78
2023/05/11 02:14:32;;;;;;;9.90;7.73;;;22.80;56.30;;;;;;4974686;28;20457;-77
2023/05/11 02:17:01;;;;;;;8.63;6.53;;;22.80;56.40;;;;;;4984987;28;20485;-78
2023/05/11 02:19:29;;;;;;;7.77;6.97;;;22.80;56.30;;;;;;4973389;28;20447;-78
2023/05/11 02:21:58;;;;;;;10.97;6.97;;;22.80;56.40;;;;;;4974079;28;20450;-78
2023/05/11 02:24:27;;;;;;;7.90;6.50;;;22.80;56.40;;;;;;4973580;28;20450;-78
2023/05/11 02:26:55;;;;;;;8.77;6.63;;;22.80;56.40;;;;;;4980847;28;20529;-78
2023/05/11 02:29:23;;;;;;;7.40;6.43;;;22.80;56.40;;;;;;4972703;28;20464;-77
2023/05/11 02:31:57;;;;;;;8.60;6.77;;;22.80;56.50;;;;;;4971325;28;20474;-78
2023/05/11 02:34:27;;;;;;;7.27;6.57;;;22.80;56.40;;;;;;4973486;28;20522;-78
2023/05/11 02:36:59;;;;;;;7.63;6.83;;;22.80;56.50;;;;;;4973732;28;20426;-80
2023/05/11 02:39:30;;;;;;;7.67;6.50;;;22.80;56.60;;;;;;4973379;28;20446;-78
2023/05/11 02:41:58;;;;;;;12.10;6.53;;;22.80;56.60;;;;;;4970951;28;20480;-77
2023/05/11 02:44:28;;;;;;;7.03;6.33;;;22.70;56.40;;;;;;4977015;28;20466;-77
2023/05/11 02:46:56;;;;;;;6.60;6.00;;;22.70;56.50;;;;;;4966162;28;20444;-80
2023/05/11 02:49:25;;;;;;;6.90;6.20;;;22.70;56.50;;;;;;4976587;28;20450;-77
2023/05/11 02:51:53;;;;;;;7.23;6.10;;;22.70;56.40;;;;;;4973433;28;20447;-77
2023/05/11 02:54:23;;;;;;;6.57;5.93;;;22.70;56.40;;;;;;4984542;28;20533;-78
2023/05/11 02:56:51;;;;;;;6.83;6.13;;;22.70;56.50;;;;;;4976272;28;20512;-77
2023/05/11 02:59:19;;;;;;;8.83;5.90;;;22.70;56.40;;;;;;4988461;28;20453;-78
2023/05/11 03:01:47;;;;;;;6.90;6.07;;;22.60;56.40;;;;;;4973742;28;20462;-77
2023/05/11 03:04:16;;;;;;;6.53;5.93;;;22.70;56.40;;;;;;4973730;28;20423;-78
2023/05/11 03:06:44;;;;;;;7.07;5.73;;;22.70;56.60;;;;;;4983325;28;20435;-77
2023/05/11 03:09:12;;;;;;;7.33;6.40;;;22.70;56.50;;;;;;4981710;28;20965;-77
2023/05/11 03:11:42;;;;;;;6.87;5.73;;;22.60;56.50;;;;;;4974781;28;20474;-77
2023/05/11 03:14:10;;;;;;;6.40;5.77;;;22.60;56.60;;;;;;4973721;28;20486;-77
2023/05/11 03:16:39;;;;;;;6.03;5.43;;;22.60;56.60;;;;;;4975812;28;20457;-77
2023/05/11 03:19:07;;;;;;;6.20;5.60;;;22.60;56.60;;;;;;4978088;28;20454;-77
2023/05/11 03:21:35;;;;;;;6.00;5.27;;;22.60;56.60;;;;;;4973199;28;20438;-77
2023/05/11 03:24:03;;;;;;;6.17;5.57;;;22.60;56.70;;;;;;4973576;28;20481;-77
2023/05/11 03:26:31;;;;;;;5.53;5.03;;;22.60;56.70;;;;;;4973280;28;20541;-78
2023/05/11 03:29:01;;;;;;;5.83;5.30;;;22.60;56.80;;;;;;4970182;28;20437;-77
2023/05/11 03:31:29;;;;;;;6.40;5.80;;;22.60;56.80;;;;;;4972851;28;20446;-77
2023/05/11 03:33:57;;;;;;;5.97;5.40;;;22.60;56.70;;;;;;4978081;28;20481;-77
2023/05/11 03:36:25;;;;;;;5.50;4.90;;;22.60;56.70;;;;;;4972452;28;20537;-78
2023/05/11 03:38:55;;;;;;;7.07;5.60;;;22.50;56.70;;;;;;4966778;28;20429;-77
2023/05/11 03:41:24;;;;;;;6.00;5.40;;;22.50;56.80;;;;;;4969330;28;20416;-78
2023/05/11 03:43:52;;;;;;;5.80;5.27;;;22.50;56.70;;;;;;4973621;28;20468;-78
2023/05/11 03:46:22;;;;;;;7.03;6.07;;;22.50;56.80;;;;;;4968671;28;20444;-78
2023/05/11 03:48:50;;;;;;;6.43;5.80;;;22.50;56.70;;;;;;4980518;28;20509;-77
2023/05/11 03:51:18;;;;;;;8.10;5.80;;;22.50;56.90;;;;;;4972630;28;20450;-77
2023/05/11 03:53:46;;;;;;;5.93;5.30;;;22.50;56.80;;;;;;4974977;28;20478;-77
2023/05/11 03:56:14;;;;;;;5.63;5.13;;;22.50;56.70;;;;;;4982053;28;20454;-80
2023/05/11 03:58:43;;;;;;;5.67;5.17;;;22.50;56.90;;;;;;4984906;28;20457;-79
2023/05/11 04:01:12;;;;;;;5.40;4.90;;;22.40;56.70;;;;;;4976330;28;20461;-79
2023/05/11 04:03:49;;;;;;;5.47;4.60;;;22.50;56.80;;;;;;4985646;28;20472;-78
2023/05/11 04:06:17;;;;;;;6.90;5.23;;;22.50;56.60;;;;;;4975676;28;20457;-79
2023/05/11 04:08:45;;;;;;;6.47;4.73;;;22.50;56.70;;;;;;4975542;28;20469;-79
2023/05/11 04:11:13;;;;;;;5.17;4.67;;;22.40;56.60;;;;;;4976030;28;20450;-79
2023/05/11 04:13:41;;;;;;;5.27;4.77;;;22.40;56.70;;;;;;4983095;28;20480;-79
2023/05/11 04:16:09;;;;;;;5.07;4.67;;;22.40;56.70;;;;;;4986042;28;20445;-80
2023/05/11 04:18:37;;;;;;;5.23;4.73;;;22.40;56.70;;;;;;4984135;28;20452;-79
2023/05/11 04:21:07;;;;;;;5.70;5.10;;;22.40;56.70;;;;;;4974709;28;20424;-79
2023/05/11 04:23:35;;;;;;;5.40;4.90;;;22.40;56.70;;;;;;4971548;28;20469;-79
2023/05/11 04:26:04;;;;;;;8.67;4.80;;;22.40;56.60;;;;;;4979821;28;20458;-77
2023/05/11 04:28:32;;;;;;;5.17;4.40;;;22.40;56.80;;;;;;4978451;28;20600;-77
2023/05/11 04:31:00;;;;;;;4.90;4.50;;;22.40;56.80;;;;;;4986727;28;20449;-77
2023/05/11 04:33:28;;;;;;;4.73;4.33;;;22.40;56.80;;;;;;4975982;28;20477;-78
2023/05/11 04:35:57;;;;;;;5.90;5.00;;;22.40;56.70;;;;;;4971522;28;20457;-77
2023/05/11 04:38:26;;;;;;;5.10;4.70;;;22.40;56.70;;;;;;4979334;28;20457;-77
2023/05/11 04:40:54;;;;;;;5.40;4.90;;;22.40;56.60;;;;;;4987807;28;20458;-78
2023/05/11 04:43:22;;;;;;;5.30;4.80;;;22.40;56.50;;;;;;4979474;28;20476;-78
2023/05/11 04:45:50;;;;;;;5.13;4.63;;;22.40;56.70;;;;;;4987695;28;20457;-77
2023/05/11 04:48:18;;;;;;;4.90;4.50;;;22.40;56.60;;;;;;4978875;28;20451;-77
2023/05/11 04:50:47;;;;;;;4.73;4.33;;;22.40;56.40;;;;;;4978829;28;20866;-77
2023/05/11 04:53:15;;;;;;;5.10;4.70;;;22.40;56.40;;;;;;4983778;28;20471;-77
2023/05/11 04:55:44;;;;;;;5.27;4.83;;;22.40;56.40;;;;;;4986779;28;20448;-77
2023/05/11 04:58:12;;;;;;;3.77;3.50;;;22.40;56.50;;;;;;4977776;28;20442;-77
2023/05/11 05:00:40;;;;;;;4.60;4.20;;;22.40;56.40;;;;;;4981330;28;20434;-77
2023/05/11 05:03:08;;;;;;;4.53;4.20;;;22.40;56.40;;;;;;4977084;28;20598;-77
2023/05/11 05:05:35;;;;;;;4.93;4.53;;;22.40;56.50;;;;;;4977671;28;20454;-77
2023/05/11 05:08:03;;;;;;;5.07;4.57;;;22.40;56.50;;;;;;4987572;28;20440;-77
2023/05/11 05:10:31;;;;;;;5.67;5.07;;;22.50;56.50;;;;;;4986740;28;20448;-77
2023/05/11 05:13:00;;;;;;;4.63;4.10;;;22.50;56.40;;;;;;4981763;28;20472;-77
2023/05/11 05:15:28;;;;;;;4.10;3.90;;;22.40;56.40;;;;;;4978629;28;20482;-77
2023/05/11 05:17:56;;;;;;;4.63;4.23;;;22.50;56.60;;;;;;4979436;28;20445;-77
2023/05/11 05:20:24;;;;;;;4.70;4.40;;;22.50;56.50;;;;;;4985394;28;20441;-77
2023/05/11 05:22:54;;;;;;;4.77;4.40;;;22.50;56.40;;;;;;4975488;28;20476;-77
2023/05/11 05:25:22;;;;;;;4.70;4.23;;;22.50;56.40;;;;;;4978370;28;20442;-77
2023/05/11 05:27:50;;;;;;;4.70;4.30;;;22.40;56.40;;;;;;4984917;28;20442;-77
2023/05/11 05:30:19;;;;;;;5.70;4.50;;;22.50;56.50;;;;;;4977982;28;20457;-77
2023/05/11 05:32:47;;;;;;;5.17;3.37;;;22.50;56.30;;;;;;4977257;28;20478;-78
2023/05/11 05:35:15;;;;;;;3.93;3.63;;;22.50;56.30;;;;;;4983125;28;20477;-77
2023/05/11 05:37:43;;;;;;;5.20;4.70;;;22.50;56.30;;;;;;4991860;28;20460;-77
2023/05/11 05:40:11;;;;;;;4.77;4.37;;;22.50;56.40;;;;;;4971234;28;20442;-77
2023/05/11 05:42:39;;;;;;;4.43;4.13;;;22.50;56.30;;;;;;4977191;28;20482;-77
2023/05/11 05:45:08;;;;;;;4.20;3.90;;;22.50;56.30;;;;;;4984266;28;20441;-77
2023/05/11 05:47:39;;;;;;;4.57;4.17;;;22.50;56.30;;;;;;4978000;28;20955;-78
2023/05/11 05:50:08;;;;;;;4.00;3.70;;;22.50;56.40;;;;;;4973986;28;20453;-77
2023/05/11 05:52:36;;;;;;;4.40;4.00;;;22.50;56.30;;;;;;4980325;28;20454;-77
2023/05/11 05:55:04;;;;;;;3.97;3.67;;;22.50;56.20;;;;;;4978981;28;20444;-77
2023/05/11 05:57:32;;;;;;;5.83;4.20;;;22.50;56.20;;;;;;4986090;28;20446;-77
2023/05/11 06:00:00;;;;;;;4.33;4.03;;;22.50;56.40;;;;;;4976294;28;20438;-77
2023/05/11 06:02:28;;;;;;;4.20;3.90;;;22.50;56.40;;;;;;4978489;28;20474;-77
2023/05/11 06:04:58;;;;;;;4.40;4.10;;;22.50;56.30;;;;;;4980503;28;20446;-77
2023/05/11 06:07:26;;;;;;;3.90;3.67;;;22.50;56.30;;;;;;4977961;28;20443;-77
2023/05/11 06:09:53;;;;;;;4.70;4.30;;;22.50;56.30;;;;;;4977466;28;20442;-77
2023/05/11 06:12:21;;;;;;;4.03;3.73;;;22.50;56.30;;;;;;4984341;28;20444;-77
2023/05/11 06:14:49;;;;;;;4.50;4.13;;;22.50;56.30;;;;;;4973678;28;20477;-77
2023/05/11 06:17:17;;;;;;;3.77;3.47;;;22.60;56.30;;;;;;4975304;28;20454;-77
2023/05/11 06:19:46;;;;;;;3.93;3.67;;;22.60;56.20;;;;;;4977659;28;20443;-77
2023/05/11 06:22:15;;;;;;;7.97;3.97;;;22.60;56.30;;;;;;4975218;28;20473;-77
2023/05/11 06:24:43;;;;;;;4.13;3.83;;;22.60;56.30;;;;;;4972866;28;20469;-77
2023/05/11 06:27:11;;;;;;;4.43;3.80;;;22.60;56.20;;;;;;4987534;28;20455;-78
2023/05/11 06:29:41;;;;;;;4.10;3.80;;;22.60;56.20;;;;;;4975276;28;20458;-78
2023/05/11 06:32:09;;;;;;;4.80;4.40;;;22.60;56.20;;;;;;4969946;28;20536;-78
2023/05/11 06:34:38;;;;;;;4.73;4.30;;;22.60;56.10;;;;;;4982486;28;20479;-78
2023/05/11 06:37:06;;;;;;;4.40;4.00;;;22.70;56.10;;;;;;4976108;28;20444;-78
2023/05/11 06:39:36;;;;;;;4.23;3.83;;;22.70;56.10;;;;;;4976527;28;20438;-78
2023/05/11 06:42:04;;;;;;;4.40;4.00;;;22.80;56.10;;;;;;4968337;28;20450;-78
2023/05/11 06:44:34;;;;;;;4.50;3.67;;;22.80;56.00;;;;;;4975904;28;20545;-78
2023/05/11 06:47:02;;;;;;;4.60;4.20;;;22.70;56.00;;;;;;4975094;28;20454;-78
2023/05/11 06:49:30;;;;;;;3.47;3.27;;;22.70;56.10;;;;;;4981518;28;20449;-78
2023/05/11 06:51:58;;;;;;;3.93;3.57;;;22.80;56.00;;;;;;4983901;28;20465;-78
2023/05/11 06:54:26;;;;;;;4.37;3.97;;;22.80;56.00;;;;;;4984761;28;20446;-78
2023/05/11 06:56:56;;;;;;;3.67;3.47;;;22.80;56.00;;;;;;4976525;28;20952;-78
2023/05/11 06:59:24;;;;;;;4.50;4.20;;;22.80;55.90;;;;;;4972753;28;20450;-79
2023/05/11 07:01:52;;;;;;;4.43;3.90;;;22.80;55.90;;;;;;4974588;28;20451;-78
2023/05/11 07:04:20;;;;;;;4.53;4.13;;;22.80;56.00;;;;;;4979057;28;20427;-78
2023/05/11 07:06:48;;;;;;;4.03;3.73;;;22.80;55.90;;;;;;4976721;28;20453;-78
2023/05/11 07:09:16;;;;;;;3.80;3.53;;;22.80;55.90;;;;;;4981000;28;20445;-78
2023/05/11 07:11:44;;;;;;;3.90;3.60;;;22.90;55.90;;;;;;4981254;28;20457;-78
2023/05/11 07:14:14;;;;;;;3.93;3.60;;;22.80;55.90;;;;;;4984035;28;20468;-78
2023/05/11 07:16:42;;;;;;;4.47;4.07;;;22.90;55.90;;;;;;4987260;28;20469;-78
2023/05/11 07:19:10;;;;;;;3.60;3.40;;;22.90;55.90;;;;;;4969412;28;20493;-78
2023/05/11 07:21:38;;;;;;;4.40;4.00;;;22.90;55.80;;;;;;4976910;28;20485;-78
2023/05/11 07:24:07;;;;;;;5.57;4.20;;;22.90;55.80;;;;;;4978363;28;20476;-78
2023/05/11 07:26:34;;;;;;;4.37;4.07;;;22.90;55.80;;;;;;4973612;28;20442;-78
2023/05/11 07:29:02;;;;;;;4.60;4.20;;;22.90;55.70;;;;;;4979533;28;20540;-78
2023/05/11 07:31:32;;;;;;;4.00;3.73;;;22.90;55.80;;;;;;4976371;28;20458;-78
2023/05/11 07:34:00;;;;;;;4.30;3.90;;;23.00;55.80;;;;;;4974761;28;20473;-78
2023/05/11 07:36:29;;;;;;;4.13;3.83;;;23.00;55.80;;;;;;4976715;28;20483;-78
2023/05/11 07:38:58;;;;;;;4.30;4.00;;;23.00;55.80;;;;;;4975738;28;20477;-78
2023/05/11 07:41:26;;;;;;;5.60;4.27;;;23.00;55.70;;;;;;4982765;28;20456;-78
2023/05/11 07:43:54;;;;;;;3.90;3.60;;;23.00;55.60;;;;;;4974825;28;20469;-78
2023/05/11 07:46:22;;;;;;;4.53;4.07;;;23.10;55.60;;;;;;4976210;28;20447;-78
2023/05/11 07:48:51;;;;;;;4.70;4.30;;;23.10;55.60;;;;;;4976903;28;20447;-78
2023/05/11 07:51:34;;;;;;;4.70;4.30;;;23.10;55.60;;;;;;4986531;28;20433;-78
2023/05/11 07:54:02;;;;;;;12.93;7.63;;;23.10;55.40;;;;;;4981787;28;20477;-85
2023/05/11 07:56:30;;;;;;;21.67;13.70;;;23.00;54.90;;;;;;4978856;28;20470;-79
2023/05/11 07:58:58;;;;;;;24.40;14.13;;;22.70;53.70;;;;;;4972966;28;20456;-80
2023/05/11 08:01:26;;;;;;;26.40;14.23;;;21.80;53.50;;;;;;4979425;28;20451;-80
2023/05/11 08:03:56;;;;;;;25.30;14.17;;;21.80;55.80;;;;;;4978610;28;20485;-82
2023/05/11 08:06:27;;;;;;;25.00;14.77;;;21.30;56.50;;;;;;4970384;28;20487;-79
2023/05/11 08:08:55;;;;;;;29.03;15.20;;;21.30;55.70;;;;;;4976435;28;20486;-79
2023/05/11 08:11:24;;;;;;;26.10;16.40;;;21.00;55.70;;;;;;4977793;28;20461;-80
2023/05/11 08:13:52;;;;;;;50.10;29.63;;;20.80;56.80;;;;;;4972639;28;20470;-79
2023/05/11 08:16:21;;;;;;;27.67;14.60;;;20.80;56.90;;;;;;4983048;28;20507;-79
2023/05/11 08:18:56;;;;;;;25.93;14.43;;;21.10;57.60;;;;;;4976616;28;20458;-79
2023/05/11 08:21:25;;;;;;;27.10;15.37;;;21.00;56.40;;;;;;4978870;28;21034;-78
2023/05/11 08:23:53;;;;;;;26.43;15.43;;;21.20;56.70;;;;;;4979362;28;20472;-79
2023/05/11 08:26:21;;;;;;;30.27;17.00;;;21.10;55.90;;;;;;4978199;28;20446;-80
2023/05/11 08:28:50;;;;;;;54.13;27.17;;;20.80;56.90;;;;;;4984176;28;20440;-84
2023/05/11 08:31:19;;;;;;;30.50;17.37;;;20.90;57.70;;;;;;4988673;28;20477;-84
2023/05/11 08:33:47;;;;;;;26.37;15.73;;;21.00;56.10;;;;;;4986820;28;20480;-85
2023/05/11 08:36:19;;;;;;;28.67;16.80;;;21.10;56.40;;;;;;4980864;28;20470;-85
2023/05/11 08:38:48;;;;;;;30.93;17.30;;;21.00;56.50;;;;;;4994129;28;20954;-83
2023/05/11 08:41:16;;;;;;;26.30;15.63;;;20.80;57.70;;;;;;4982184;28;20450;-84
2023/05/11 08:43:44;;;;;;;29.23;15.20;;;20.90;57.00;;;;;;4982209;28;20472;-81
2023/05/11 08:46:14;;;;;;;22.07;12.67;;;20.90;57.40;;;;;;4984491;28;20946;-82
2023/05/11 08:48:42;;;;;;;21.33;13.30;;;21.20;57.00;;;;;;4992562;28;20437;-82
2023/05/11 08:51:10;;;;;;;24.23;13.77;;;20.70;57.10;;;;;;4981761;28;20693;-82
2023/05/11 08:53:39;;;;;;;23.10;13.30;;;20.30;58.50;;;;;;4982346;28;20480;-82
2023/05/11 08:56:09;;;;;;;21.37;12.27;;;20.00;60.20;;;;;;4982752;28;20466;-82
2023/05/11 08:58:37;;;;;;;21.83;12.27;;;19.80;60.80;;;;;;4981561;28;20453;-81
2023/05/11 09:01:06;;;;;;;24.30;12.70;;;19.60;61.40;;;;;;4989549;28;20457;-81
2023/05/11 09:03:35;;;;;;;33.30;19.50;;;19.50;62.40;;;;;;4978630;28;20470;-81
2023/05/11 09:06:04;;;;;;;32.07;17.27;;;19.50;63.90;;;;;;4977969;28;20454;-81
2023/05/11 09:08:32;;;;;;;20.90;12.83;;;19.80;62.80;;;;;;4987924;28;20474;-81
2023/05/11 09:11:02;;;;;;;21.83;12.20;;;19.90;62.60;;;;;;4976105;28;20474;-81
2023/05/11 09:13:30;;;;;;;20.23;11.87;;;19.60;61.80;;;;;;4977150;28;20573;-82
2023/05/11 09:15:58;;;;;;;18.87;10.63;;;19.70;63.70;;;;;;4976151;28;20484;-77
2023/05/11 09:18:27;;;;;;;19.27;10.80;;;19.90;62.30;;;;;;4976511;28;20458;-79
2023/05/11 09:20:55;;;;;;;23.10;10.67;;;19.80;62.70;;;;;;4975158;28;20460;-80
2023/05/11 09:23:25;;;;;;;19.13;10.93;;;19.60;63.30;;;;;;4977562;28;20469;-80
2023/05/11 09:25:53;;;;;;;13.17;8.60;;;19.80;63.70;;;;;;4975100;28;20461;-79
2023/05/11 09:28:24;;;;;;;15.13;9.10;;;19.90;62.10;;;;;;4972258;28;20489;-79
2023/05/11 09:30:53;;;;;;;13.93;8.60;;;19.40;62.10;;;;;;4968643;28;20458;-79
2023/05/11 09:33:22;;;;;;;14.30;8.57;;;19.70;64.90;;;;;;4980564;28;20465;-80
2023/05/11 09:35:50;;;;;;;17.67;9.10;;;20.30;63.80;;;;;;4978328;28;20522;-83
2023/05/11 09:38:21;;;;;;;14.83;8.93;;;20.70;61.50;;;;;;4969848;28;20471;-81
2023/05/11 09:40:51;;;;;;;16.33;8.60;;;21.10;61.10;;;;;;4982119;28;20448;-81
2023/05/11 09:43:24;;;;;;;11.00;7.40;;;21.30;59.70;;;;;;4973853;28;20469;-80
2023/05/11 09:45:53;;;;;;;13.00;8.17;;;21.40;59.00;;;;;;4979374;28;20484;-82
2023/05/11 09:48:26;;;;;;;18.60;7.80;;;21.70;58.50;;;;;;4975755;28;20450;-77
2023/05/11 09:51:02;;;;;;;11.37;5.97;;;21.70;59.40;;;;;;4975819;28;20947;-78
2023/05/11 09:53:38;;;;;;;13.33;6.10;;;22.50;59.90;;;;;;4983497;28;20574;-81
2023/05/11 09:56:06;;;;;;;16.50;5.77;;;23.10;58.70;;;;;;4983909;28;20957;-79
2023/05/11 09:58:49;;;;;;;19.83;5.73;;;23.70;58.20;;;;;;4973749;28;20450;-77
2023/05/11 10:01:18;;;;;;;9.37;4.80;;;24.20;56.50;;;;;;4970548;28;20877;-79
2023/05/11 10:03:47;;;;;;;9.87;5.00;;;24.50;55.80;;;;;;4971189;28;20451;-80
2023/05/11 10:06:16;;;;;;;15.60;5.03;;;24.60;55.10;;;;;;4971543;28;20450;-80
2023/05/11 10:08:47;;;;;;;5.77;4.57;;;24.70;54.90;;;;;;4981346;28;20512;-78
2023/05/11 10:11:15;;;;;;;9.67;4.93;;;24.80;54.80;;;;;;4986639;28;20416;-80
2023/05/11 10:13:43;;;;;;;10.80;5.20;;;24.90;54.70;;;;;;4975524;28;20584;-80
2023/05/11 10:16:15;;;;;;;8.07;4.80;;;25.10;54.30;;;;;;4983711;28;20417;-80
2023/05/11 10:18:43;;;;;;;4.63;4.17;;;25.20;53.90;;;;;;4984191;28;20450;-80
2023/05/11 10:21:15;;;;;;;14.50;4.70;;;25.20;53.80;;;;;;4973368;28;20452;-79
2023/05/11 10:23:43;;;;;;;7.70;4.70;;;25.30;53.70;;;;;;4983714;28;20481;-80
2023/05/11 10:26:13;;;;;;;6.10;4.50;;;25.50;53.60;;;;;;4984652;28;20541;-80
2023/05/11 10:28:41;;;;;;;7.33;4.10;;;25.60;53.30;;;;;;4986584;28;20445;-81
2023/05/11 10:31:10;;;;;;;5.80;4.43;;;25.70;53.20;;;;;;4979577;28;20446;-80
2023/05/11 10:33:40;;;;;;;6.40;4.33;;;25.80;53.00;;;;;;4986709;28;20495;-80
2023/05/11 10:36:09;;;;;;;4.67;4.23;;;25.90;52.60;;;;;;4975245;28;20439;-80
2023/05/11 10:38:37;;;;;;;6.13;3.93;;;26.00;52.60;;;;;;4978558;28;20487;-81
2023/05/11 10:41:09;;;;;;;4.63;4.30;;;26.10;52.40;;;;;;4986919;28;20421;-80
2023/05/11 10:43:54;;;;;;;4.17;3.80;;;26.10;52.00;;;;;;4994689;28;20461;-81
2023/05/11 10:46:33;;;;;;;5.70;4.07;;;26.10;52.10;;;;;;4971723;28;20549;-81
2023/05/11 10:49:11;;;;;;;10.30;4.60;;;26.10;52.20;;;;;;4994325;28;20500;-81
2023/05/11 10:51:46;;;;;;;6.10;4.10;;;26.10;52.20;;;;;;4990466;28;20415;-81
2023/05/11 10:54:29;;;;;;;6.30;3.87;;;26.10;52.10;;;;;;4976735;28;20431;-80
2023/05/11 10:57:21;;;;;;;4.80;4.13;;;26.20;52.00;;;;;;4978929;28;20484;-82
2023/05/11 11:00:13;;;;;;;7.47;4.07;;;26.20;52.00;;;;;;4981719;28;20417;-82
2023/05/11 11:02:45;;;;;;;4.10;3.70;;;26.20;51.80;;;;;;4984150;28;20469;-82
2023/05/11 11:05:16;;;;;;;5.90;4.00;;;26.20;52.00;;;;;;4976719;28;20461;-80
2023/05/11 11:07:58;;;;;;;4.23;3.90;;;26.10;52.00;;;;;;4979457;28;20417;-80
2023/05/11 11:10:33;;;;;;;5.23;4.50;;;26.30;52.10;;;;;;4983494;28;20446;-79
2023/05/11 11:13:05;;;;;;;4.50;4.10;;;26.30;51.80;;;;;;4983186;28;20437;-81
2023/05/11 11:19:36;;;;;;;4.90;3.93;;;26.40;51.60;;;;;;4975316;28;20485;-79
2023/05/11 11:22:06;;;;;;;5.20;4.67;;;26.40;51.80;;;;;;4980143;28;20450;-79
2023/05/11 11:24:44;;;;;;;4.30;3.97;;;26.40;51.80;;;;;;4982368;28;20441;-79
2023/05/11 11:27:12;;;;;;;7.60;4.27;;;26.40;51.80;;;;;;4978656;28;20453;-79
2023/05/11 11:29:40;;;;;;;7.33;4.10;;;26.60;51.90;;;;;;4980775;28;20450;-79
2023/05/11 11:32:29;;;;;;;5.03;3.97;;;26.80;51.70;;;;;;4970383;28;20462;-79
2023/05/11 11:34:57;;;;;;;4.20;3.80;;;27.00;51.00;;;;;;4977528;28;20446;-79
2023/05/11 11:37:27;;;;;;;11.17;4.20;;;27.00;51.00;;;;;;4976641;28;20451;-79
2023/05/11 11:39:59;;;;;;;4.27;4.00;;;26.90;51.00;;;;;;4976887;28;20429;-79
2023/05/11 11:42:41;;;;;;;4.30;4.00;;;27.00;51.30;;;;;;4973046;28;20581;-79
2023/05/11 11:45:29;;;;;;;4.73;4.13;;;27.10;51.10;;;;;;4976210;28;20425;-79
2023/05/11 11:48:16;;;;;;;7.40;4.40;;;27.20;50.80;;;;;;4983985;28;20453;-79
2023/05/11 11:50:46;;;;;;;4.80;4.30;;;27.20;50.90;;;;;;4975335;28;20427;-79
2023/05/11 11:53:47;;;;;;;4.53;3.90;;;27.30;50.70;;;;;;4973503;28;20465;-80
2023/05/11 11:56:38;;;;;;;4.23;3.83;;;27.50;50.70;;;;;;4984078;28;20773;-79
2023/05/11 11:59:09;;;;;;;4.80;4.40;;;27.40;50.30;;;;;;4976167;28;20473;-79
2023/05/11 12:01:38;;;;;;;4.77;4.37;;;27.20;50.40;;;;;;4979167;28;20437;-79
2023/05/11 12:04:39;;;;;;;4.30;4.00;;;27.10;50.50;;;;;;4984032;28;20444;-79
2023/05/11 12:07:10;;;;;;;4.77;4.37;;;27.10;50.80;;;;;;4983012;28;20420;-79
2023/05/11 12:09:39;;;;;;;5.43;4.17;;;26.90;51.00;;;;;;4993464;28;20447;-78
2023/05/11 12:12:10;;;;;;;4.60;4.10;;;26.90;51.30;;;;;;4974986;28;20983;-80
2023/05/11 12:14:39;;;;;;;5.30;4.73;;;26.90;51.10;;;;;;4978725;28;20430;-78
2023/05/11 12:17:12;;;;;;;4.90;4.50;;;26.80;51.20;;;;;;4973444;28;20509;-78
2023/05/11 12:19:41;;;;;;;4.43;4.03;;;26.80;51.40;;;;;;4977910;28;20423;-78
2023/05/11 12:22:10;;;;;;;4.70;4.40;;;26.80;51.50;;;;;;4973115;28;20445;-78
2023/05/11 12:24:38;;;;;;;4.97;4.57;;;26.80;51.20;;;;;;4978708;28;20419;-78
2023/05/11 12:27:06;;;;;;;5.87;5.37;;;26.80;51.40;;;;;;4972552;28;20813;-78
2023/05/11 12:29:36;;;;;;;4.47;4.17;;;26.70;51.40;;;;;;4972375;28;20444;-79
2023/05/11 12:32:04;;;;;;;5.10;4.70;;;26.70;51.60;;;;;;4972259;28;20416;-79
2023/05/11 12:34:32;;;;;;;5.70;4.77;;;26.60;51.80;;;;;;4973951;28;20444;-80
2023/05/11 12:37:00;;;;;;;5.43;4.73;;;26.60;51.70;;;;;;4971957;28;20449;-81
2023/05/11 12:39:29;;;;;;;4.97;4.57;;;26.60;51.60;;;;;;4983860;28;20470;-80
2023/05/11 12:41:57;;;;;;;4.93;4.40;;;26.50;51.80;;;;;;4977500;28;20522;-79
2023/05/11 12:44:25;;;;;;;4.97;4.57;;;26.50;51.60;;;;;;4970329;28;20492;-79
2023/05/11 12:46:55;;;;;;;5.67;5.17;;;26.50;51.80;;;;;;4979321;28;20475;-80
2023/05/11 12:49:24;;;;;;;5.33;4.90;;;26.60;51.50;;;;;;4983113;28;20439;-79
2023/05/11 12:52:01;;;;;;;5.57;5.07;;;26.50;51.50;;;;;;4974476;28;20448;-80
2023/05/11 12:54:32;;;;;;;5.53;5.13;;;26.60;51.20;;;;;;4979958;28;20439;-79
2023/05/11 12:57:02;;;;;;;5.60;5.10;;;26.50;50.90;;;;;;4982956;28;20449;-82
2023/05/11 12:59:33;;;;;;;5.07;4.70;;;26.50;50.80;;;;;;4980082;28;20445;-79
2023/05/11 13:02:14;;;;;;;6.50;5.87;;;26.50;50.60;;;;;;4979574;28;20424;-79